Time;durP1;ratioP1;P1;durP2;ratioP2;P2;SDS_P1;SDS_P2;PMS_P1;PMS_P2;Temp;Humidity;BMP_temperature;BMP_pressure;BME280_temperature;BME280_humidity;BME280_pressure;Samples;Min_cycle;Max_cycle;Signal;HPM_P1;HPM_P2
2022/11/07 00:01:31;;;;;;;25.00;12.53;;;;;;;-145.14;100.00;70583.66;5036144;28;20768;-74
2022/11/07 00:03:57;;;;;;;25.50;15.50;;;;;;;-145.14;100.00;70583.66;5023581;28;20184;-74
2022/11/07 00:06:22;;;;;;;24.13;14.67;;;;;;;-145.14;100.00;70583.66;5039157;28;20188;-74
2022/11/07 00:08:48;;;;;;;18.30;14.17;;;;;;;-145.14;100.00;70583.66;5041226;28;21287;-74
2022/11/07 00:11:14;;;;;;;35.40;28.00;;;;;;;-145.14;100.00;70583.66;5021642;28;20681;-74
2022/11/07 00:13:40;;;;;;;18.40;14.90;;;;;;;-145.14;100.00;70583.66;5040481;28;20449;-74
2022/11/07 00:16:09;;;;;;;14.47;10.13;;;;;;;-145.14;100.00;70583.66;5033709;28;20564;-74
2022/11/07 00:18:36;;;;;;;12.73;8.90;;;;;;;-145.14;100.00;70583.66;5026566;28;20270;-74
2022/11/07 00:21:02;;;;;;;8.37;5.27;;;;;;;-145.14;100.00;70583.66;5031209;28;20462;-74
2022/11/07 00:23:27;;;;;;;8.57;4.43;;;;;;;-145.14;100.00;70583.66;5046511;28;20442;-74
2022/11/07 00:25:53;;;;;;;11.97;4.43;;;;;;;-145.14;100.00;70583.66;5029870;28;20437;-74
2022/11/07 00:28:18;;;;;;;7.93;4.83;;;;;;;-145.14;100.00;70583.66;5043835;28;20757;-74
2022/11/07 00:30:44;;;;;;;8.40;3.80;;;;;;;-145.14;100.00;70583.66;5026899;28;25777;-75
2022/11/07 00:33:09;;;;;;;6.50;3.60;;;;;;;-145.14;100.00;70583.66;5026649;28;20206;-74
2022/11/07 00:35:39;;;;;;;9.50;3.93;;;;;;;-145.14;100.00;70583.66;5040623;28;20282;-74
2022/11/07 00:38:05;;;;;;;9.13;4.30;;;;;;;-145.14;100.00;70583.66;5043238;28;20196;-74
2022/11/07 00:40:30;;;;;;;7.40;3.93;;;;;;;-145.14;100.00;70583.66;5040444;28;20510;-74
2022/11/07 00:42:56;;;;;;;7.17;3.90;;;;;;;-145.14;100.00;70583.66;5025798;28;20190;-74
2022/11/07 00:45:21;;;;;;;8.67;4.43;;;;;;;-145.14;100.00;70583.66;5018267;28;20284;-75
2022/11/07 00:47:46;;;;;;;9.30;3.73;;;;;;;-145.14;100.00;70583.66;5039510;28;20186;-74
2022/11/07 00:50:12;;;;;;;8.30;4.77;;;;;;;-145.14;100.00;70583.66;5041271;28;20215;-74
2022/11/07 00:52:37;;;;;;;5.13;3.53;;;;;;;-145.14;100.00;70583.66;5025019;28;20234;-75
2022/11/07 00:55:03;;;;;;;5.40;3.43;;;;;;;-145.14;100.00;70583.66;5040377;28;20218;-74
2022/11/07 00:57:29;;;;;;;9.23;3.83;;;;;;;-145.14;100.00;70583.66;5035728;28;20657;-74
2022/11/07 00:59:55;;;;;;;6.70;3.37;;;;;;;-145.14;100.00;70583.66;5023339;28;20505;-73
2022/11/07 01:02:20;;;;;;;6.17;4.00;;;;;;;-145.14;100.00;70583.66;5036217;28;20525;-74
2022/11/07 01:07:32;;;;;;;7.23;3.57;;;;;;;-145.14;100.00;70583.66;5035054;28;20190;-74
2022/11/07 01:09:57;;;;;;;8.60;3.80;;;;;;;-145.14;100.00;70583.66;5041472;28;20515;-75
2022/11/07 01:12:23;;;;;;;4.70;2.77;;;;;;;-145.14;100.00;70583.66;5014917;28;21119;-76
2022/11/07 01:14:48;;;;;;;12.53;4.27;;;;;;;-145.14;100.00;70583.66;5040891;28;20303;-75
2022/11/07 01:17:13;;;;;;;10.57;4.13;;;;;;;-145.14;100.00;70583.66;5024803;28;20195;-75
2022/11/07 01:19:39;;;;;;;6.67;3.40;;;;;;;-145.14;100.00;70583.66;5041321;28;20653;-75
2022/11/07 01:22:04;;;;;;;6.10;3.23;;;;;;;-145.14;100.00;70583.66;5042984;28;20184;-74
2022/11/07 01:24:29;;;;;;;10.30;4.17;;;;;;;-145.14;100.00;70583.66;5026424;28;20186;-74
2022/11/07 01:26:55;;;;;;;10.90;3.40;;;;;;;-145.14;100.00;70583.66;5041104;28;20342;-76
2022/11/07 01:29:20;;;;;;;6.33;3.60;;;;;;;-145.14;100.00;70583.66;5037341;28;20266;-75
2022/11/07 01:31:46;;;;;;;10.87;4.10;;;;;;;-145.14;100.00;70583.66;5018130;28;20180;-75
2022/11/07 01:34:12;;;;;;;4.50;2.73;;;;;;;-145.14;100.00;70583.66;5045781;28;20187;-74
2022/11/07 01:36:38;;;;;;;6.43;3.30;;;;;;;-145.14;100.00;70583.66;5028305;28;20445;-74
2022/11/07 01:39:04;;;;;;;9.60;2.50;;;;;;;-145.14;100.00;70583.66;5045159;28;20187;-74
2022/11/07 01:41:33;;;;;;;8.50;3.67;;;;;;;-145.14;100.00;70583.66;5042422;28;20500;-75
2022/11/07 01:44:07;;;;;;;13.30;3.90;;;;;;;-145.14;100.00;70583.66;5038889;28;20943;-75
2022/11/07 01:46:41;;;;;;;11.33;3.87;;;;;;;-145.14;100.00;70583.66;5016600;28;21361;-75
2022/11/07 01:49:28;;;;;;;8.00;3.00;;;;;;;-145.14;100.00;70583.66;5038852;28;20434;-74
2022/11/07 01:52:08;;;;;;;7.43;2.97;;;;;;;-145.14;100.00;70583.66;5040418;28;20434;-74
2022/11/07 01:54:49;;;;;;;10.20;3.00;;;;;;;-145.14;100.00;70583.66;5037996;28;20495;-74
2022/11/07 01:57:21;;;;;;;8.70;2.97;;;;;;;-145.14;100.00;70583.66;5042009;28;20525;-75
2022/11/07 01:59:50;;;;;;;12.43;3.00;;;;;;;-145.14;100.00;70583.66;5037822;28;20458;-74
2022/11/07 02:02:15;;;;;;;9.60;3.20;;;;;;;-145.14;100.00;70583.66;5035845;28;20441;-74
2022/11/07 02:04:41;;;;;;;6.90;2.47;;;;;;;-145.14;100.00;70583.66;5025972;28;20898;-75
2022/11/07 02:07:18;;;;;;;10.30;2.87;;;;;;;-145.14;100.00;70583.66;5046006;28;20176;-74
2022/11/07 02:09:45;;;;;;;6.70;2.70;;;;;;;-145.14;100.00;70583.66;5037079;28;20502;-75
2022/11/07 02:12:11;;;;;;;4.43;2.73;;;;;;;-145.14;100.00;70583.66;5041969;28;20437;-75
2022/11/07 02:14:36;;;;;;;8.63;3.20;;;;;;;-145.14;100.00;70583.66;5028138;28;20529;-75
2022/11/07 02:17:02;;;;;;;8.60;3.50;;;;;;;-145.14;100.00;70583.66;5046019;28;20437;-74
2022/11/07 02:19:38;;;;;;;7.00;2.57;;;;;;;-145.14;100.00;70583.66;5035662;28;20184;-75
2022/11/07 02:22:35;;;;;;;7.90;2.83;;;;;;;-145.14;100.00;70583.66;5047061;28;20433;-74
2022/11/07 02:25:04;;;;;;;9.30;2.87;;;;;;;-145.14;100.00;70583.66;5046723;28;20516;-75
2022/11/07 02:27:32;;;;;;;10.73;3.47;;;;;;;-145.14;100.00;70583.66;5029764;28;20457;-74
2022/11/07 02:30:10;;;;;;;7.90;2.43;;;;;;;-145.14;100.00;70583.66;5046232;28;20461;-74
2022/11/07 02:32:36;;;;;;;10.20;3.00;;;;;;;-145.14;100.00;70583.66;5030704;28;20438;-74
2022/11/07 02:35:05;;;;;;;7.50;2.97;;;;;;;-145.14;100.00;70583.66;5031279;28;20523;-74
2022/11/07 02:37:37;;;;;;;6.93;2.90;;;;;;;-145.14;100.00;70583.66;5045296;28;20184;-74
2022/11/07 02:40:07;;;;;;;9.57;2.90;;;;;;;-145.14;100.00;70583.66;5046658;28;20903;-75
2022/11/07 02:42:42;;;;;;;10.10;3.30;;;;;;;-145.14;100.00;70583.66;5047567;28;20539;-74
2022/11/07 02:45:15;;;;;;;10.57;2.83;;;;;;;-145.14;100.00;70583.66;5042221;28;20476;-74
2022/11/07 02:47:40;;;;;;;5.30;2.30;;;;;;;-145.14;100.00;70583.66;5020440;28;20449;-74
2022/11/07 02:50:08;;;;;;;7.43;2.70;;;;;;;-145.14;100.00;70583.66;5041276;28;20472;-74
2022/11/07 02:52:34;;;;;;;10.60;3.23;;;;;;;-145.14;100.00;70583.66;5041065;28;20249;-75
2022/11/07 02:54:59;;;;;;;7.73;3.00;;;;;;;-145.14;100.00;70583.66;5022537;28;20604;-74
2022/11/07 02:57:25;;;;;;;10.37;3.10;;;;;;;-145.14;100.00;70583.66;5041148;28;20444;-75
2022/11/07 02:59:51;;;;;;;11.83;3.23;;;;;;;-145.14;100.00;70583.66;5038553;28;20227;-74
2022/11/07 03:02:16;;;;;;;6.23;2.20;;;;;;;-145.14;100.00;70583.66;5041648;28;21152;-74
2022/11/07 03:04:42;;;;;;;8.87;3.33;;;;;;;-145.14;100.00;70583.66;5043812;28;20203;-74
2022/11/07 03:07:07;;;;;;;10.13;3.03;;;;;;;-145.14;100.00;70583.66;5026380;28;20261;-75
2022/11/07 03:09:33;;;;;;;8.30;3.00;;;;;;;-145.14;100.00;70583.66;5118800;22;20240;-74
2022/11/07 03:11:58;;;;;;;11.63;3.30;;;;;;;-145.14;100.00;70583.66;5033815;28;20603;-74
2022/11/07 03:14:23;;;;;;;20.53;3.93;;;;;;;-145.14;100.00;70583.66;5035559;28;20606;-74
2022/11/07 03:16:49;;;;;;;14.37;3.70;;;;;;;-145.14;100.00;70583.66;5033341;28;20212;-74
2022/11/07 03:19:19;;;;;;;7.90;2.60;;;;;;;-145.14;100.00;70583.66;5034464;28;20246;-75
2022/11/07 03:21:48;;;;;;;7.97;3.10;;;;;;;-145.14;100.00;70583.66;5038595;28;20261;-74
2022/11/07 03:24:18;;;;;;;8.97;3.40;;;;;;;-145.14;100.00;70583.66;5036000;28;20461;-74
2022/11/07 03:26:46;;;;;;;7.27;3.07;;;;;;;-145.14;100.00;70583.66;5018298;28;20430;-75
2022/11/07 03:29:13;;;;;;;10.50;2.60;;;;;;;-145.14;100.00;70583.66;5029732;28;20799;-75
2022/11/07 03:31:39;;;;;;;11.83;3.13;;;;;;;-145.14;100.00;70583.66;5022117;28;20472;-75
2022/11/07 03:34:07;;;;;;;10.13;2.70;;;;;;;-145.14;100.00;70583.66;5035296;28;20438;-75
2022/11/07 03:36:35;;;;;;;11.03;3.97;;;;;;;-145.14;100.00;70583.66;5035300;28;20220;-75
2022/11/07 03:39:01;;;;;;;12.17;3.03;;;;;;;-145.14;100.00;70583.66;5037151;28;20801;-74
2022/11/07 03:41:26;;;;;;;15.90;3.03;;;;;;;-145.14;100.00;70583.66;5032932;28;20461;-75
2022/11/07 03:43:52;;;;;;;6.83;2.90;;;;;;;-145.14;100.00;70583.66;5020048;28;20218;-75
2022/11/07 03:46:20;;;;;;;10.80;3.40;;;;;;;-145.14;100.00;70583.66;5034793;28;20194;-75
2022/11/07 03:48:50;;;;;;;10.17;3.47;;;;;;;-145.14;100.00;70583.66;5036249;28;20486;-74
2022/11/07 03:51:16;;;;;;;9.40;2.80;;;;;;;-145.14;100.00;70583.66;5034854;28;21021;-75
2022/11/07 03:53:43;;;;;;;9.53;2.40;;;;;;;-145.14;100.00;70583.66;5032860;28;20987;-74
2022/11/07 03:56:10;;;;;;;6.17;2.40;;;;;;;-145.14;100.00;70583.66;5021190;28;20314;-75
2022/11/07 03:58:36;;;;;;;9.40;2.80;;;;;;;-145.14;100.00;70583.66;5038085;28;20482;-75
2022/11/07 04:01:09;;;;;;;17.93;3.80;;;;;;;-145.14;100.00;70583.66;5021677;28;20494;-75
2022/11/07 04:03:36;;;;;;;8.83;3.60;;;;;;;-145.14;100.00;70583.66;5049294;28;20468;-75
2022/11/07 04:06:02;;;;;;;9.70;3.93;;;;;;;-145.14;100.00;70583.66;5030585;28;20887;-75
2022/11/07 04:08:30;;;;;;;6.60;3.63;;;;;;;-145.14;100.00;70583.66;5050583;28;20449;-75
2022/11/07 04:10:57;;;;;;;9.63;4.70;;;;;;;-145.14;100.00;70583.66;5030175;28;20291;-75
2022/11/07 04:19:00;;;;;;;12.00;4.40;;;;;;;-145.14;100.00;70583.66;5033150;28;20883;-75
2022/11/07 04:21:28;;;;;;;12.93;4.90;;;;;;;-145.14;100.00;70583.66;5015884;28;21053;-75
2022/11/07 04:23:59;;;;;;;12.33;4.37;;;;;;;-145.14;100.00;70583.66;5037882;28;20438;-75
2022/11/07 04:29:11;;;;;;;7.60;3.40;;;;;;;-145.14;100.00;70583.66;5035805;28;20865;-75
2022/11/07 04:31:36;;;;;;;8.93;3.60;;;;;;;-145.14;100.00;70583.66;5039894;28;20454;-75
2022/11/07 04:34:04;;;;;;;11.50;3.80;;;;;;;-145.14;100.00;70583.66;5048394;28;20216;-75
2022/11/07 04:36:29;;;;;;;10.00;4.20;;;;;;;-145.14;100.00;70583.66;5044473;28;20652;-74
2022/11/07 04:38:57;;;;;;;14.10;3.53;;;;;;;-145.14;100.00;70583.66;5042332;28;20567;-75
2022/11/07 04:41:27;;;;;;;9.03;4.00;;;;;;;-145.14;100.00;70583.66;5041002;28;20227;-74
2022/11/07 04:43:55;;;;;;;10.70;3.57;;;;;;;-145.14;100.00;70583.66;5035137;28;20853;-75
2022/11/07 04:46:23;;;;;;;12.40;4.03;;;;;;;-145.14;100.00;70583.66;5038158;28;21522;-74
2022/11/07 04:48:53;;;;;;;18.97;4.20;;;;;;;-145.14;100.00;70583.66;5020947;28;20521;-74
2022/11/07 04:51:23;;;;;;;13.00;3.80;;;;;;;-145.14;100.00;70583.66;5037904;28;20463;-75
2022/11/07 04:53:48;;;;;;;11.23;3.40;;;;;;;-145.14;100.00;70583.66;5015441;28;20530;-74
2022/11/07 04:56:14;;;;;;;13.33;3.70;;;;;;;-145.14;100.00;70583.66;5034557;28;20470;-75
2022/11/07 04:58:39;;;;;;;15.37;3.10;;;;;;;-145.14;100.00;70583.66;5033039;28;21111;-74
2022/11/07 05:01:04;;;;;;;11.03;3.80;;;;;;;-145.14;100.00;70583.66;5035717;28;20212;-74
2022/11/07 05:03:30;;;;;;;8.10;2.90;;;;;;;-145.14;100.00;70583.66;5036924;28;20599;-75
2022/11/07 05:05:55;;;;;;;9.70;4.97;;;;;;;-145.14;100.00;70583.66;5037185;28;20232;-74
2022/11/07 05:08:21;;;;;;;13.03;5.07;;;;;;;-145.14;100.00;70583.66;5022055;28;20218;-75
2022/11/07 05:10:46;;;;;;;14.77;4.73;;;;;;;-145.14;100.00;70583.66;5017576;28;20271;-75
2022/11/07 05:13:12;;;;;;;8.80;3.07;;;;;;;-145.14;100.00;70583.66;5031013;28;20206;-74
2022/11/07 05:15:37;;;;;;;13.93;3.37;;;;;;;-145.14;100.00;70583.66;5031793;28;20341;-76
2022/11/07 05:18:03;;;;;;;9.47;3.50;;;;;;;-145.14;100.00;70583.66;5038155;28;20202;-76
2022/11/07 05:20:33;;;;;;;8.93;3.23;;;;;;;-145.14;100.00;70583.66;5036381;28;20196;-75
2022/11/07 05:23:14;;;;;;;13.20;4.50;;;;;;;-145.14;100.00;70583.66;5032262;28;20219;-76
2022/11/07 05:25:45;;;;;;;9.67;3.70;;;;;;;-145.14;100.00;70583.66;5035606;28;20442;-75
2022/11/07 05:28:12;;;;;;;11.57;3.13;;;;;;;-145.14;100.00;70583.66;5035826;28;20437;-76
2022/11/07 05:30:42;;;;;;;11.20;4.10;;;;;;;-145.14;100.00;70583.66;5037934;28;20470;-75
2022/11/07 05:33:09;;;;;;;10.20;3.27;;;;;;;-145.14;100.00;70583.66;5029925;28;20445;-75
2022/11/07 05:35:44;;;;;;;11.47;3.33;;;;;;;-145.14;100.00;70583.66;5033471;28;20504;-75
2022/11/07 05:38:10;;;;;;;11.40;3.30;;;;;;;-145.14;100.00;70583.66;5023566;28;20475;-75
2022/11/07 05:40:37;;;;;;;10.70;3.13;;;;;;;-145.14;100.00;70583.66;5024559;28;20469;-75
2022/11/07 05:43:05;;;;;;;13.53;3.53;;;;;;;-145.14;100.00;70583.66;5035499;28;21003;-75
2022/11/07 05:45:38;;;;;;;17.47;4.30;;;;;;;-145.14;100.00;70583.66;5033734;28;20481;-76
2022/11/07 05:48:06;;;;;;;10.83;4.37;;;;;;;-145.14;100.00;70583.66;5016576;28;21073;-75
2022/11/07 05:50:31;;;;;;;21.17;4.20;;;;;;;-145.14;100.00;70583.66;5038039;28;20463;-75
2022/11/07 05:52:57;;;;;;;20.10;4.27;;;;;;;-145.14;100.00;70583.66;5043470;28;20457;-76
2022/11/07 05:55:24;;;;;;;10.40;3.63;;;;;;;-145.14;100.00;70583.66;5050162;28;20208;-75
2022/11/07 05:57:50;;;;;;;14.00;4.33;;;;;;;-145.14;100.00;70583.66;5046652;28;20819;-76
2022/11/07 06:00:16;;;;;;;9.73;4.20;;;;;;;-145.14;100.00;70583.66;5044426;28;20443;-76
2022/11/07 06:02:42;;;;;;;14.70;4.00;;;;;;;-145.14;100.00;70583.66;5044667;28;20463;-75
2022/11/07 06:05:08;;;;;;;14.53;4.53;;;;;;;-145.14;100.00;70583.66;5034067;28;20538;-76
2022/11/07 06:07:35;;;;;;;19.97;3.90;;;;;;;-145.14;100.00;70583.66;5024988;28;20183;-75
2022/11/07 06:10:00;;;;;;;11.57;4.30;;;;;;;-145.14;100.00;70583.66;5022891;28;20511;-76
2022/11/07 06:12:26;;;;;;;10.97;3.67;;;;;;;-145.14;100.00;70583.66;5032154;28;20446;-75
2022/11/07 06:14:51;;;;;;;9.93;3.33;;;;;;;-145.14;100.00;70583.66;5020625;28;20192;-75
2022/11/07 06:17:17;;;;;;;10.57;4.10;;;;;;;-145.14;100.00;70583.66;5019034;28;20195;-75
2022/11/07 06:19:42;;;;;;;7.33;2.70;;;;;;;-145.14;100.00;70583.66;5036753;28;20243;-76
2022/11/07 06:22:07;;;;;;;9.47;3.20;;;;;;;-145.14;100.00;70583.66;5019232;28;20188;-77
2022/11/07 06:24:33;;;;;;;10.03;3.47;;;;;;;-145.14;100.00;70583.66;5039800;28;20192;-76
2022/11/07 06:26:58;;;;;;;6.97;2.80;;;;;;;-145.14;100.00;70583.66;5036808;28;20809;-77
2022/11/07 06:29:24;;;;;;;8.77;3.37;;;;;;;-145.14;100.00;70583.66;5038734;28;20187;-76
2022/11/07 06:31:49;;;;;;;11.17;3.43;;;;;;;-145.14;100.00;70583.66;5036541;28;20192;-76
2022/11/07 06:34:15;;;;;;;11.50;3.77;;;;;;;-145.14;100.00;70583.66;5038319;28;20188;-76
2022/11/07 06:36:40;;;;;;;7.80;3.20;;;;;;;-145.14;100.00;70583.66;5039102;28;20243;-76
2022/11/07 06:39:05;;;;;;;12.23;3.63;;;;;;;-145.14;100.00;70583.66;5019923;28;20311;-75
2022/11/07 06:41:31;;;;;;;12.00;4.03;;;;;;;-145.14;100.00;70583.66;5027987;28;20253;-76
2022/11/07 06:43:56;;;;;;;17.80;4.73;;;;;;;-145.14;100.00;70583.66;5027986;28;20188;-76
2022/11/07 06:46:22;;;;;;;7.67;3.60;;;;;;;-145.14;100.00;70583.66;5015751;28;20675;-76
2022/11/07 06:48:47;;;;;;;9.17;3.23;;;;;;;-145.14;100.00;70583.66;5021158;28;20834;-76
2022/11/07 06:51:13;;;;;;;14.03;4.17;;;;;;;-145.14;100.00;70583.66;5015626;28;20219;-76
2022/11/07 06:53:39;;;;;;;11.40;3.70;;;;;;;-145.14;100.00;70583.66;5022932;28;20188;-75
2022/11/07 06:56:06;;;;;;;12.67;4.53;;;;;;;-145.14;100.00;70583.66;5038426;28;20684;-75
2022/11/07 06:58:32;;;;;;;10.63;3.77;;;;;;;-145.14;100.00;70583.66;5024380;28;20191;-76
2022/11/07 07:01:03;;;;;;;13.67;4.90;;;;;;;-145.14;100.00;70583.66;5040417;28;20453;-75
2022/11/07 07:03:28;;;;;;;8.73;3.70;;;;;;;-145.14;100.00;70583.66;5042134;28;20442;-76
2022/11/07 07:05:54;;;;;;;9.50;3.90;;;;;;;-145.14;100.00;70583.66;5040170;28;20796;-76
2022/11/07 07:08:19;;;;;;;11.70;3.73;;;;;;;-145.14;100.00;70583.66;5038751;28;20644;-76
2022/11/07 07:10:45;;;;;;;8.83;3.70;;;;;;;-145.14;100.00;70583.66;5040713;28;20265;-76
2022/11/07 07:13:11;;;;;;;9.80;4.37;;;;;;;-145.14;100.00;70583.66;5041805;28;20653;-76
2022/11/07 07:15:37;;;;;;;12.27;3.67;;;;;;;-145.14;100.00;70583.66;5041320;28;20219;-76
2022/11/07 07:18:03;;;;;;;14.43;4.23;;;;;;;-145.14;100.00;70583.66;5041465;28;20438;-75
2022/11/07 07:20:31;;;;;;;12.53;4.60;;;;;;;-145.14;100.00;70583.66;5042540;28;20585;-76
2022/11/07 07:22:56;;;;;;;10.33;4.23;;;;;;;-145.14;100.00;70583.66;5037992;28;20450;-76
2022/11/07 07:25:22;;;;;;;10.30;3.67;;;;;;;-145.14;100.00;70583.66;5024828;28;20431;-76
2022/11/07 07:27:47;;;;;;;13.90;4.47;;;;;;;-145.14;100.00;70583.66;5030829;28;20238;-76
2022/11/07 07:30:13;;;;;;;10.43;3.53;;;;;;;-145.14;100.00;70583.66;5043460;28;20618;-76
2022/11/07 07:32:38;;;;;;;12.50;4.20;;;;;;;-145.14;100.00;70583.66;5043016;28;20197;-76
2022/11/07 07:35:05;;;;;;;13.60;3.57;;;;;;;-145.14;100.00;70583.66;5044941;28;20453;-76
2022/11/07 07:37:30;;;;;;;8.37;4.10;;;;;;;-145.14;100.00;70583.66;5042157;28;20227;-75
2022/11/07 07:39:56;;;;;;;7.70;3.63;;;;;;;-145.14;100.00;70583.66;5044276;28;20462;-76
2022/11/07 07:42:21;;;;;;;9.47;3.40;;;;;;;-145.14;100.00;70583.66;5042044;28;20187;-76
2022/11/07 07:44:47;;;;;;;11.77;3.90;;;;;;;-145.14;100.00;70583.66;5024840;28;20210;-75
2022/11/07 07:47:12;;;;;;;9.37;3.10;;;;;;;-145.14;100.00;70583.66;5032622;28;20212;-76
2022/11/07 07:49:38;;;;;;;8.90;2.90;;;;;;;-145.14;100.00;70583.66;5035498;28;20662;-76
2022/11/07 07:52:03;;;;;;;11.20;3.40;;;;;;;-145.14;100.00;70583.66;5034596;28;20192;-76
2022/11/07 07:54:29;;;;;;;12.10;4.60;;;;;;;-145.14;100.00;70583.66;5030417;28;20188;-75
2022/11/07 07:56:54;;;;;;;11.60;4.40;;;;;;;-145.14;100.00;70583.66;5038604;28;20208;-76
2022/11/07 07:59:19;;;;;;;7.83;3.77;;;;;;;-145.14;100.00;70583.66;5040723;28;20185;-76
2022/11/07 08:01:45;;;;;;;10.93;4.13;;;;;;;-145.14;100.00;70583.66;5043326;28;20227;-76
2022/11/07 08:04:10;;;;;;;12.73;4.90;;;;;;;-145.14;100.00;70583.66;5027352;28;20234;-76
2022/11/07 08:06:36;;;;;;;11.00;4.80;;;;;;;-145.14;100.00;70583.66;5025564;28;20560;-76
2022/11/07 08:09:03;;;;;;;13.23;4.60;;;;;;;-145.14;100.00;70583.66;5035035;28;20657;-75
2022/11/07 08:11:28;;;;;;;13.20;5.80;;;;;;;-145.14;100.00;70583.66;5026343;28;20494;-76
2022/11/07 08:13:54;;;;;;;14.47;5.30;;;;;;;-145.14;100.00;70583.66;5035861;28;20529;-76
2022/11/07 08:16:19;;;;;;;12.53;4.77;;;;;;;-145.14;100.00;70583.66;5025902;28;20242;-76
2022/11/07 08:18:45;;;;;;;14.23;6.10;;;;;;;-145.14;100.00;70583.66;5044556;28;20454;-76
2022/11/07 08:21:10;;;;;;;13.17;5.30;;;;;;;-145.14;100.00;70583.66;5025587;28;20203;-76
2022/11/07 08:23:35;;;;;;;12.90;4.57;;;;;;;-145.14;100.00;70583.66;5040423;28;20177;-75
2022/11/07 08:26:03;;;;;;;18.13;5.80;;;;;;;-145.14;100.00;70583.66;5025581;28;20246;-76
2022/11/07 08:28:31;;;;;;;13.97;4.70;;;;;;;-145.14;100.00;70583.66;5030119;28;20184;-76
2022/11/07 08:31:03;;;;;;;16.27;5.83;;;;;;;-145.14;100.00;70583.66;5039177;28;20499;-76
2022/11/07 08:33:29;;;;;;;14.50;5.30;;;;;;;-145.14;100.00;70583.66;5028270;28;20439;-76
2022/11/07 08:36:00;;;;;;;14.00;5.90;;;;;;;-145.14;100.00;70583.66;5043348;28;20466;-76
2022/11/07 08:38:27;;;;;;;12.23;5.00;;;;;;;-145.14;100.00;70583.66;5035650;28;20197;-75
2022/11/07 08:40:52;;;;;;;16.30;5.90;;;;;;;-145.14;100.00;70583.66;5038920;28;20458;-76
2022/11/07 08:43:18;;;;;;;9.10;4.83;;;;;;;-145.14;100.00;70583.66;5039026;28;20440;-76
2022/11/07 08:45:45;;;;;;;13.17;5.67;;;;;;;-145.14;100.00;70583.66;5039534;28;20191;-76
2022/11/07 08:48:10;;;;;;;16.20;5.30;;;;;;;-145.14;100.00;70583.66;5024976;28;20414;-76
2022/11/07 08:50:36;;;;;;;9.80;5.00;;;;;;;-145.14;100.00;70583.66;5022113;28;20459;-76
2022/11/07 08:53:01;;;;;;;15.80;5.60;;;;;;;-145.14;100.00;70583.66;5025813;28;20184;-76
2022/11/07 08:55:27;;;;;;;12.10;5.57;;;;;;;-145.14;100.00;70583.66;5040478;28;20576;-76
2022/11/07 08:58:03;;;;;;;13.87;5.20;;;;;;;-145.14;100.00;70583.66;5025757;28;20190;-76
2022/11/07 09:00:29;;;;;;;12.00;5.90;;;;;;;-145.14;100.00;70583.66;5039425;28;20199;-75
2022/11/07 09:02:54;;;;;;;14.80;5.50;;;;;;;-145.14;100.00;70583.66;5042078;28;20420;-76
2022/11/07 09:05:20;;;;;;;16.83;5.77;;;;;;;-145.14;100.00;70583.66;5043229;28;20439;-75
2022/11/07 09:07:45;;;;;;;16.63;5.30;;;;;;;-145.14;100.00;70583.66;5041940;28;20664;-76
2022/11/07 09:12:49;;;;;;;13.77;5.00;;;;;;;-145.14;100.00;70583.66;5000190;28;20254;-74
2022/11/07 09:15:16;;;;;;;14.20;5.07;;;;;;;-145.14;100.00;70583.66;5003483;28;20567;-74
2022/11/07 09:17:42;;;;;;;15.57;5.63;;;;;;;-145.14;100.00;70583.66;5008083;28;20875;-75
2022/11/07 09:20:09;;;;;;;22.67;6.23;;;;;;;-145.14;100.00;70583.66;5010288;28;20472;-74
2022/11/07 09:22:35;;;;;;;16.60;5.73;;;;;;;-145.14;100.00;70583.66;5006615;28;20420;-76
2022/11/07 09:25:00;;;;;;;11.93;4.80;;;;;;;-145.14;100.00;70583.66;5005919;28;20444;-75
2022/11/07 09:27:26;;;;;;;9.73;4.90;;;;;;;-145.14;100.00;70583.66;5010296;28;20193;-75
2022/11/07 09:29:51;;;;;;;14.87;4.90;;;;;;;-145.14;100.00;70583.66;5004808;28;20596;-75
2022/11/07 09:32:17;;;;;;;9.03;4.50;;;;;;;-145.14;100.00;70583.66;5004229;28;20191;-75
2022/11/07 09:34:45;;;;;;;12.70;4.50;;;;;;;-145.14;100.00;70583.66;5001422;28;20196;-75
2022/11/07 09:37:11;;;;;;;15.70;5.10;;;;;;;-145.14;100.00;70583.66;5005876;28;20267;-75
2022/11/07 09:39:37;;;;;;;11.63;5.00;;;;;;;-145.14;100.00;70583.66;5004240;28;20463;-75
2022/11/07 09:42:16;;;;;;;16.37;4.67;;;;;;;-145.14;100.00;70583.66;5019423;28;20812;-75
2022/11/07 09:44:53;;;;;;;10.30;4.30;;;;;;;-145.14;100.00;70583.66;5000818;28;20223;-73
2022/11/07 09:47:37;;;;;;;14.43;4.90;;;;;;;-145.14;100.00;70583.66;5003716;28;20415;-76
2022/11/07 09:50:11;;;;;;;15.53;4.43;;;;;;;-145.14;100.00;70583.66;5006461;28;20466;-76
2022/11/07 09:53:02;;;;;;;17.43;5.40;;;;;;;-145.14;100.00;70583.66;5006005;28;20443;-75
2022/11/07 09:55:43;;;;;;;16.30;4.73;;;;;;;-145.14;100.00;70583.66;5003846;28;20463;-75
2022/11/07 09:58:21;;;;;;;15.10;4.93;;;;;;;-145.14;100.00;70583.66;5003710;28;20444;-75
2022/11/07 10:00:47;;;;;;;15.63;3.93;;;;;;;-145.14;100.00;70583.66;5005877;28;20465;-76
2022/11/07 10:03:13;;;;;;;14.20;4.70;;;;;;;-145.14;100.00;70583.66;5022813;28;20524;-75
2022/11/07 10:06:00;;;;;;;14.30;4.60;;;;;;;-145.14;100.00;70583.66;5003799;28;20275;-75
2022/11/07 10:08:44;;;;;;;10.60;4.30;;;;;;;-145.14;100.00;70583.66;5008935;28;20185;-74
2022/11/07 10:11:39;;;;;;;15.13;4.37;;;;;;;-145.14;100.00;70583.66;5004699;28;20462;-74
2022/11/07 10:14:41;;;;;;;18.13;4.73;;;;;;;-145.14;100.00;70583.66;5000601;28;20440;-76
2022/11/07 10:17:10;;;;;;;13.83;4.70;;;;;;;-145.14;100.00;70583.66;5005502;28;20471;-75
2022/11/07 10:20:07;;;;;;;12.93;4.83;;;;;;;-145.14;100.00;70583.66;5003100;28;20440;-76
2022/11/07 10:22:45;;;;;;;10.60;3.90;;;;;;;-145.14;100.00;70583.66;5003282;28;20515;-75
2022/11/07 10:25:42;;;;;;;12.43;4.20;;;;;;;-145.14;100.00;70583.66;5006891;28;20818;-74
2022/11/07 10:28:16;;;;;;;13.57;3.60;;;;;;;-145.14;100.00;70583.66;5002717;28;20443;-76
2022/11/07 10:30:47;;;;;;;10.13;3.67;;;;;;;-145.14;100.00;70583.66;4995603;28;20475;-75
2022/11/07 10:33:35;;;;;;;25.90;5.00;;;;;;;-145.14;100.00;70583.66;5003495;28;20491;-75
2022/11/07 10:36:24;;;;;;;20.00;4.20;;;;;;;-145.14;100.00;70583.66;5008557;28;20467;-76
2022/11/07 10:38:50;;;;;;;19.43;4.60;;;;;;;-145.14;100.00;70583.66;5009857;28;20450;-76
2022/11/07 10:41:22;;;;;;;14.93;3.90;;;;;;;-145.14;100.00;70583.66;5004634;28;20845;-77
2022/11/07 10:43:58;;;;;;;7.80;3.47;;;;;;;-145.14;100.00;70583.66;5005960;28;20448;-76
2022/11/07 10:46:40;;;;;;;9.27;4.07;;;;;;;-145.14;100.00;70583.66;5004833;28;20450;-76
2022/11/07 10:49:26;;;;;;;14.87;4.13;;;;;;;-145.14;100.00;70583.66;5003421;28;20586;-75
2022/11/07 10:51:54;;;;;;;15.90;3.77;;;;;;;-145.14;100.00;70583.66;5026481;28;20424;-77
2022/11/07 10:54:20;;;;;;;15.00;4.03;;;;;;;-145.14;100.00;70583.66;5009466;28;20432;-76
2022/11/07 10:56:50;;;;;;;13.23;4.30;;;;;;;-145.14;100.00;70583.66;5006398;28;20580;-76
2022/11/07 10:59:26;;;;;;;11.80;4.20;;;;;;;-145.14;100.00;70583.66;5007046;28;20452;-77
2022/11/07 11:01:55;;;;;;;22.93;3.90;;;;;;;-145.14;100.00;70583.66;5008320;28;20451;-75
2022/11/07 11:04:23;;;;;;;16.60;3.90;;;;;;;-145.14;100.00;70583.66;5005348;28;20451;-75
2022/11/07 11:06:59;;;;;;;8.00;3.33;;;;;;;-145.14;100.00;70583.66;5010295;28;20992;-77
2022/11/07 11:09:35;;;;;;;13.30;4.37;;;;;;;-145.14;100.00;70583.66;5012794;28;20448;-76
2022/11/07 11:12:06;;;;;;;14.70;3.87;;;;;;;-145.14;100.00;70583.66;5005565;28;20463;-76
2022/11/07 11:14:32;;;;;;;15.90;4.00;;;;;;;-145.14;100.00;70583.66;5005677;28;20444;-77
2022/11/07 11:16:57;;;;;;;13.57;3.00;;;;;;;-145.14;100.00;70583.66;5020325;28;20977;-76
2022/11/07 11:19:39;;;;;;;10.10;3.43;;;;;;;-145.14;100.00;70583.66;5009190;28;20667;-77
2022/11/07 11:22:15;;;;;;;15.03;4.37;;;;;;;-145.14;100.00;70583.66;5009298;28;20181;-77
2022/11/07 11:24:40;;;;;;;9.27;3.20;;;;;;;-145.14;100.00;70583.66;5004200;28;20440;-75